< < Back
Terminal Aerodrome Forecast


Current Version              Previous Versions:   1  2  3  4  5  6  7  8  9  

Terminal Aerodrome Forecast

333
FTUS42 KMLB 230520
TAFDAB
TAF
KDAB 230520Z 2306/2406 04005KT P6SM SCT013 SCT020
     FM231400 05011KT P6SM SCT030
     FM231800 05014G22KT P6SM SCT035 SCT050
     FM240000 05014KT P6SM BKN060
     FM240200 06008KT P6SM BKN060=

Latest METAR

226
SAUS80 KWBC 240300
MTRDAB
METAR KDAB 240253Z 08010KT 10SM FEW032 SCT065 BKN130 25/21 A3025 RMK AO2
SLP242 60043 T02500211 53007


USA.gov is the U.S. government's official web portal to all federal, state and local government web resources and services.